createdAt,value
2022-08-29T00:02:21.497Z,97.68
2022-08-29T00:05:08.414Z,98.13
2022-08-29T00:07:36.432Z,98.57
2022-08-29T00:10:05.713Z,99.21
2022-08-29T00:12:39.271Z,99.18
2022-08-29T00:15:21.043Z,100.00
2022-08-29T00:17:50.174Z,100.00
2022-08-29T00:20:30.290Z,100.00
2022-08-29T00:23:24.821Z,99.19
2022-08-29T00:25:51.781Z,98.77
2022-08-29T00:28:36.174Z,98.25
2022-08-29T00:31:03.625Z,98.70
2022-08-29T00:33:31.860Z,99.33
2022-08-29T00:35:59.275Z,98.74
2022-08-29T00:38:27.893Z,98.47
2022-08-29T00:40:57.635Z,98.43
2022-08-29T00:43:29.324Z,98.80
2022-08-29T00:46:28.374Z,99.09
2022-08-29T00:49:01.024Z,99.29
2022-08-29T00:51:29.216Z,100.00
2022-08-29T00:54:08.371Z,100.00
2022-08-29T00:56:38.364Z,100.00
2022-08-29T00:59:28.192Z,99.51
2022-08-29T01:01:58.800Z,100.00
2022-08-29T01:04:26.995Z,100.00
2022-08-29T01:06:54.776Z,100.00
2022-08-29T01:09:24.824Z,100.00
2022-08-29T01:12:16.695Z,100.00
2022-08-29T01:15:01.524Z,100.00
2022-08-29T01:17:42.945Z,100.00
2022-08-29T01:20:40.875Z,100.00
2022-08-29T01:23:12.914Z,100.00
2022-08-29T01:25:49.086Z,100.00
2022-08-29T01:28:38.072Z,100.00
2022-08-29T01:31:57.033Z,100.00
2022-08-29T01:34:42.183Z,100.00
2022-08-29T01:37:15.240Z,100.00
2022-08-29T01:39:45.696Z,100.00
2022-08-29T01:42:17.928Z,100.00
2022-08-29T01:44:50.882Z,100.00
2022-08-29T01:47:35.616Z,100.00
2022-08-29T01:50:08.296Z,100.00
2022-08-29T01:52:43.053Z,100.00
2022-08-29T01:55:22.088Z,100.00
2022-08-29T01:57:50.254Z,100.00
2022-08-29T02:00:19.670Z,100.00
2022-08-29T02:02:57.102Z,100.00
2022-08-29T02:05:48.546Z,100.00
2022-08-29T02:08:16.743Z,100.00
2022-08-29T02:10:48.441Z,100.00
2022-08-29T02:13:15.483Z,100.00
2022-08-29T02:15:57.848Z,100.00
2022-08-29T02:18:26.877Z,100.00
2022-08-29T02:20:56.549Z,100.00
2022-08-29T02:23:31.039Z,100.00
2022-08-29T02:25:59.897Z,100.00
2022-08-29T02:28:29.385Z,100.00
2022-08-29T02:30:58.990Z,100.00
2022-08-29T02:33:27.444Z,100.00
2022-08-29T02:36:00.072Z,100.00
2022-08-29T02:38:29.283Z,100.00
2022-08-29T02:40:59.912Z,100.00
2022-08-29T02:43:29.947Z,100.00
2022-08-29T02:45:58.697Z,100.00
2022-08-29T02:48:27.136Z,100.00
2022-08-29T02:50:59.303Z,100.00
2022-08-29T02:53:37.815Z,100.00
2022-08-29T02:56:07.060Z,100.00
2022-08-29T02:58:37.240Z,100.00
2022-08-29T03:01:04.538Z,100.00
2022-08-29T03:03:41.344Z,100.00
2022-08-29T03:06:10.366Z,100.00
2022-08-29T03:08:44.381Z,100.00
2022-08-29T03:11:14.519Z,100.00
2022-08-29T03:13:45.494Z,100.00
2022-08-29T03:16:14.328Z,100.00
2022-08-29T03:18:50.746Z,100.00
2022-08-29T03:21:24.173Z,100.00
2022-08-29T03:23:58.500Z,100.00
2022-08-29T03:26:25.937Z,100.00
2022-08-29T03:28:53.077Z,100.00
2022-08-29T03:31:27.410Z,100.00
2022-08-29T03:33:56.554Z,100.00
2022-08-29T03:36:27.351Z,100.00
2022-08-29T03:39:04.745Z,100.00
2022-08-29T03:41:32.166Z,100.00
2022-08-29T03:44:02.678Z,100.00
2022-08-29T03:46:40.066Z,100.00
2022-08-29T03:49:08.456Z,100.00
2022-08-29T03:51:40.641Z,100.00
2022-08-29T03:54:16.585Z,100.00
2022-08-29T03:56:46.945Z,100.00
2022-08-29T03:59:18.810Z,100.00
2022-08-29T04:02:20.458Z,100.00
2022-08-29T04:05:10.190Z,100.00
2022-08-29T04:07:50.446Z,100.00
2022-08-29T04:10:27.525Z,100.00
2022-08-29T04:13:06.399Z,100.00
2022-08-29T04:15:39.338Z,100.00
2022-08-29T04:18:13.474Z,100.00
2022-08-29T04:20:45.901Z,100.00
2022-08-29T04:23:24.033Z,100.00
2022-08-29T04:26:37.306Z,100.00
2022-08-29T04:29:08.674Z,100.00
2022-08-29T04:31:43.874Z,100.00
2022-08-29T04:34:17.375Z,100.00
2022-08-29T04:36:47.566Z,100.00
2022-08-29T04:39:16.812Z,100.00
2022-08-29T04:41:45.429Z,100.00
2022-08-29T04:44:13.497Z,100.00
2022-08-29T04:46:43.695Z,100.00
2022-08-29T04:49:16.494Z,100.00
2022-08-29T04:51:53.396Z,100.00
2022-08-29T04:54:21.457Z,100.00
2022-08-29T04:56:57.316Z,100.00
2022-08-29T04:59:35.236Z,100.00
2022-08-29T05:02:05.545Z,100.00
2022-08-29T05:04:32.757Z,100.00
2022-08-29T05:07:01.793Z,100.00
2022-08-29T05:09:28.945Z,100.00
2022-08-29T05:11:58.847Z,100.00
2022-08-29T05:14:27.872Z,100.00
2022-08-29T05:16:57.406Z,100.00
2022-08-29T05:19:26.459Z,100.00
2022-08-29T05:21:58.242Z,100.00
2022-08-29T05:24:49.982Z,100.00
2022-08-29T05:27:20.384Z,100.00
2022-08-29T05:29:49.286Z,100.00
2022-08-29T05:32:29.734Z,100.00
2022-08-29T05:34:56.764Z,100.00
2022-08-29T05:37:35.642Z,100.00
2022-08-29T05:40:12.048Z,100.00
2022-08-29T05:42:39.661Z,100.00
2022-08-29T05:45:08.401Z,100.00
2022-08-29T05:47:36.520Z,100.00
2022-08-29T05:50:29.208Z,99.53
2022-08-29T05:52:58.418Z,99.07
2022-08-29T05:55:39.155Z,99.07
2022-08-29T05:58:14.468Z,98.86
2022-08-29T06:00:44.212Z,98.47
2022-08-29T06:03:14.670Z,98.67
2022-08-29T06:05:52.286Z,98.90
2022-08-29T06:08:21.850Z,98.48
2022-08-29T06:10:55.022Z,98.38
2022-08-29T06:13:25.326Z,98.07
2022-08-29T06:15:53.551Z,97.87
2022-08-29T06:18:22.909Z,98.64
2022-08-29T06:21:05.730Z,97.35
2022-08-29T06:23:41.268Z,96.15
2022-08-29T06:26:11.009Z,96.25
2022-08-29T06:28:40.082Z,95.70
2022-08-29T06:31:22.822Z,96.15
2022-08-29T06:33:58.946Z,94.71
2022-08-29T06:36:29.109Z,94.56
2022-08-29T06:39:00.989Z,94.25
2022-08-29T06:41:29.466Z,93.02
2022-08-29T06:43:57.743Z,93.15
2022-08-29T06:46:32.457Z,93.88
2022-08-29T06:49:04.376Z,92.88
2022-08-29T06:51:33.880Z,93.75
2022-08-29T06:54:07.027Z,94.17
2022-08-29T06:56:37.933Z,94.18
2022-08-29T06:59:06.437Z,93.54
2022-08-29T07:01:34.522Z,91.88
2022-08-29T07:04:02.239Z,91.85
2022-08-29T07:06:31.475Z,92.38
2022-08-29T07:09:00.236Z,94.06
2022-08-29T07:11:30.620Z,92.48
2022-08-29T07:14:00.298Z,93.07
2022-08-29T07:16:29.728Z,92.26
2022-08-29T07:18:58.418Z,91.20
2022-08-29T07:21:27.059Z,91.66
2022-08-29T07:24:04.311Z,91.48
2022-08-29T07:26:36.545Z,88.27
2022-08-29T07:29:09.407Z,86.28
2022-08-29T07:31:39.390Z,86.56
2022-08-29T07:34:10.894Z,85.42
2022-08-29T07:36:52.439Z,83.86
2022-08-29T07:39:20.733Z,84.63
2022-08-29T07:41:48.586Z,83.62
2022-08-29T07:44:23.295Z,83.29
2022-08-29T07:46:57.874Z,82.47
2022-08-29T07:49:36.070Z,80.54
2022-08-29T07:52:40.245Z,82.98
2022-08-29T07:55:09.139Z,82.28
2022-08-29T07:57:41.450Z,81.79
2022-08-29T08:00:12.547Z,79.79
2022-08-29T08:02:45.416Z,79.77
2022-08-29T08:05:15.669Z,78.74
2022-08-29T08:07:43.554Z,77.78
2022-08-29T08:10:20.407Z,78.78
2022-08-29T08:12:49.318Z,80.01
2022-08-29T08:15:23.301Z,77.76
2022-08-29T08:17:51.505Z,78.63
2022-08-29T08:20:24.365Z,74.87
2022-08-29T08:23:20.596Z,74.91
2022-08-29T08:25:57.791Z,74.75
2022-08-29T08:28:28.621Z,74.61
2022-08-29T08:31:05.106Z,73.08
2022-08-29T08:33:58.273Z,73.87
2022-08-29T08:36:28.968Z,76.07
2022-08-29T08:38:57.938Z,74.23
2022-08-29T08:41:33.874Z,71.13
2022-08-29T08:44:14.365Z,70.55
2022-08-29T08:46:48.114Z,69.96
2022-08-29T08:49:39.224Z,69.63
2022-08-29T08:52:14.277Z,70.60
2022-08-29T08:54:59.977Z,69.25
2022-08-29T08:57:42.085Z,69.80
2022-08-29T09:00:13.905Z,69.36
2022-08-29T09:03:12.180Z,69.47
2022-08-29T09:06:01.877Z,67.97
2022-08-29T09:08:51.139Z,64.75
2022-08-29T09:11:54.941Z,65.78
2022-08-29T09:14:35.492Z,65.13
2022-08-29T09:17:03.774Z,65.18
2022-08-29T09:19:34.824Z,64.29
2022-08-29T09:22:18.653Z,63.64
2022-08-29T09:24:54.080Z,61.95
2022-08-29T09:27:26.683Z,61.35
2022-08-29T09:30:11.776Z,59.68
2022-08-29T09:33:05.540Z,59.20
2022-08-29T09:35:45.647Z,59.71
2022-08-29T09:38:31.781Z,60.57
2022-08-29T09:41:02.840Z,58.97
2022-08-29T09:43:40.048Z,59.83
2022-08-29T09:46:23.762Z,60.18
2022-08-29T09:49:05.744Z,59.24
2022-08-29T09:51:38.580Z,59.70
2022-08-29T09:54:32.287Z,57.85
2022-08-29T09:57:06.277Z,58.83
2022-08-29T09:59:45.250Z,55.41
2022-08-29T10:02:46.856Z,56.69
2022-08-29T10:05:36.193Z,57.05
2022-08-29T10:08:06.315Z,56.46
2022-08-29T10:10:36.959Z,58.04
2022-08-29T10:13:22.189Z,56.48
2022-08-29T10:16:12.009Z,54.12
2022-08-29T10:18:54.114Z,55.06
2022-08-29T10:21:38.222Z,54.16
2022-08-29T10:24:24.894Z,52.19
2022-08-29T10:27:39.963Z,50.90
2022-08-29T10:30:49.746Z,52.91
2022-08-29T10:33:55.395Z,52.59
2022-08-29T10:36:31.681Z,52.20
2022-08-29T10:39:25.356Z,50.85
2022-08-29T10:42:12.736Z,50.65
2022-08-29T10:45:00.280Z,49.76
2022-08-29T10:47:33.459Z,48.19
2022-08-29T10:50:27.529Z,51.24
2022-08-29T10:53:37.197Z,50.02
2022-08-29T10:56:23.569Z,48.76
2022-08-29T10:59:05.998Z,49.39
2022-08-29T11:01:37.680Z,47.55
2022-08-29T11:04:26.969Z,49.04
2022-08-29T11:07:23.796Z,47.12
2022-08-29T11:10:25.161Z,46.71
2022-08-29T11:13:13.010Z,48.79
2022-08-29T11:16:15.071Z,49.01
2022-08-29T11:19:00.621Z,49.59
2022-08-29T11:21:42.118Z,48.55
2022-08-29T11:24:12.537Z,47.45
2022-08-29T11:27:01.097Z,46.81
2022-08-29T11:29:51.288Z,47.05
2022-08-29T11:32:32.236Z,47.90
2022-08-29T11:35:43.607Z,45.21
2022-08-29T11:38:42.120Z,45.70
2022-08-29T11:41:31.042Z,46.57
2022-08-29T11:44:28.173Z,47.07
2022-08-29T11:47:42.924Z,46.37
2022-08-29T11:50:09.874Z,45.91
2022-08-29T11:52:37.171Z,47.39
2022-08-29T11:55:34.975Z,45.36
2022-08-29T11:58:26.040Z,43.30
2022-08-29T12:00:56.658Z,45.46
2022-08-29T12:03:37.440Z,44.03
2022-08-29T12:06:15.906Z,42.64
2022-08-29T12:08:51.191Z,42.67
2022-08-29T12:11:19.759Z,41.00
2022-08-29T12:13:48.700Z,41.01
2022-08-29T12:16:25.143Z,40.81
2022-08-29T12:18:58.213Z,41.71
2022-08-29T12:21:46.058Z,40.81
2022-08-29T12:24:40.831Z,41.55
2022-08-29T12:27:44.680Z,39.97
2022-08-29T12:30:14.770Z,39.82
2022-08-29T12:33:06.633Z,39.40
2022-08-29T12:35:34.002Z,38.99
2022-08-29T12:38:23.211Z,37.56
2022-08-29T12:41:04.979Z,40.00
2022-08-29T12:43:35.927Z,39.51
2022-08-29T12:46:10.432Z,39.94
2022-08-29T12:48:58.039Z,38.64
2022-08-29T12:51:42.830Z,40.15
2022-08-29T12:54:12.679Z,41.87
2022-08-29T12:56:49.306Z,40.56
2022-08-29T12:59:43.962Z,40.41
2022-08-29T13:02:24.293Z,39.67
2022-08-29T13:04:52.561Z,40.24
2022-08-29T13:07:28.926Z,40.43
2022-08-29T13:09:59.622Z,40.06
2022-08-29T13:13:11.053Z,39.21
2022-08-29T13:19:22.055Z,39.99
2022-08-29T13:22:04.044Z,41.02
2022-08-29T13:24:35.193Z,40.19
2022-08-29T13:27:06.283Z,39.07
2022-08-29T13:29:42.657Z,38.62
2022-08-29T13:32:20.614Z,37.77
2022-08-29T13:35:04.675Z,38.20
2022-08-29T13:37:43.172Z,37.30
2022-08-29T13:40:51.774Z,39.43
2022-08-29T13:44:11.575Z,38.99
2022-08-29T13:46:47.345Z,39.20
2022-08-29T13:49:26.068Z,39.00
2022-08-29T13:52:13.975Z,38.00
2022-08-29T13:54:54.316Z,38.14
2022-08-29T13:57:26.414Z,37.98
2022-08-29T13:59:54.563Z,37.55
2022-08-29T14:02:35.803Z,37.38
2022-08-29T14:05:03.232Z,37.64
2022-08-29T14:07:32.132Z,37.69
2022-08-29T14:10:01.574Z,37.59
2022-08-29T14:12:33.850Z,36.03
2022-08-29T14:15:08.350Z,36.30
2022-08-29T14:17:37.277Z,36.02
2022-08-29T14:20:08.024Z,35.76
2022-08-29T14:22:58.055Z,35.95
2022-08-29T14:26:01.268Z,35.35
2022-08-29T14:28:28.392Z,34.97
2022-08-29T14:31:01.420Z,36.41
2022-08-29T14:33:32.510Z,34.73
2022-08-29T14:36:16.794Z,34.79
2022-08-29T14:38:55.008Z,34.80
2022-08-29T14:41:23.220Z,33.38
2022-08-29T14:43:54.542Z,34.97
2022-08-29T14:46:23.114Z,34.37
2022-08-29T14:49:04.495Z,34.97
2022-08-29T14:51:32.592Z,34.00
2022-08-29T14:53:59.748Z,33.53
2022-08-29T14:56:50.062Z,32.92
2022-08-29T14:59:26.005Z,33.99
2022-08-29T15:01:55.752Z,33.15
2022-08-29T15:04:36.684Z,33.80
2022-08-29T15:07:11.103Z,34.04
2022-08-29T15:09:49.545Z,34.00
2022-08-29T15:12:29.231Z,33.82
2022-08-29T15:14:57.705Z,33.65
2022-08-29T15:17:29.088Z,33.51
2022-08-29T15:22:47.420Z,34.25
2022-08-29T15:25:25.619Z,32.47
2022-08-29T15:27:52.957Z,32.41
2022-08-29T15:30:24.462Z,32.43
2022-08-29T15:32:56.758Z,34.46
2022-08-29T15:35:27.242Z,34.23
2022-08-29T15:37:55.690Z,33.81
2022-08-29T15:40:23.178Z,33.90
2022-08-29T15:42:53.220Z,34.34
2022-08-29T15:45:27.652Z,33.57
2022-08-29T15:48:11.530Z,33.28
2022-08-29T15:51:16.953Z,33.63
2022-08-29T15:53:51.038Z,33.60
2022-08-29T15:56:20.250Z,33.56
2022-08-29T15:58:55.723Z,33.79
2022-08-29T16:01:24.942Z,34.59
2022-08-29T16:04:01.390Z,33.88
2022-08-29T16:06:41.288Z,32.61
2022-08-29T16:09:18.773Z,33.60
2022-08-29T16:12:01.128Z,33.83
2022-08-29T16:15:27.880Z,34.23
2022-08-29T16:18:25.877Z,34.63
2022-08-29T16:21:29.804Z,34.51
2022-08-29T16:24:01.318Z,35.50
2022-08-29T16:26:30.333Z,34.34
2022-08-29T16:28:59.633Z,35.08
2022-08-29T16:31:26.837Z,35.14
2022-08-29T16:34:04.285Z,35.92
2022-08-29T16:36:32.516Z,36.62
2022-08-29T16:39:47.954Z,37.20
2022-08-29T16:42:17.975Z,37.73
2022-08-29T16:45:08.855Z,38.78
2022-08-29T16:48:20.511Z,39.34
2022-08-29T16:51:25.424Z,40.10
2022-08-29T16:54:16.302Z,40.80
2022-08-29T16:56:45.546Z,41.34
2022-08-29T16:59:37.265Z,42.15
2022-08-29T17:02:49.679Z,42.69
2022-08-29T17:05:44.845Z,43.58
2022-08-29T17:08:19.174Z,44.40
2022-08-29T17:11:43.941Z,44.80
2022-08-29T17:14:19.953Z,46.18
2022-08-29T17:17:02.430Z,47.18
2022-08-29T17:19:33.772Z,47.67
2022-08-29T17:22:10.668Z,48.74
2022-08-29T17:24:43.516Z,49.63
2022-08-29T17:27:29.844Z,50.09
2022-08-29T17:30:22.043Z,50.71
2022-08-29T17:32:55.392Z,52.80
2022-08-29T17:35:23.314Z,54.19
2022-08-29T17:37:50.408Z,54.96
2022-08-29T17:40:17.830Z,55.99
2022-08-29T17:42:47.777Z,59.21
2022-08-29T17:45:15.754Z,60.41
2022-08-29T17:47:44.254Z,59.55
2022-08-29T17:50:12.768Z,59.18
2022-08-29T17:52:47.020Z,57.59
2022-08-29T17:55:20.307Z,57.34
2022-08-29T17:57:48.785Z,57.91
2022-08-29T18:00:25.350Z,59.47
2022-08-29T18:02:53.425Z,60.30
2022-08-29T18:05:22.923Z,61.50
2022-08-29T18:07:52.122Z,62.18
2022-08-29T18:10:25.900Z,63.20
2022-08-29T18:12:54.819Z,67.55
2022-08-29T18:15:35.653Z,68.65
2022-08-29T18:18:03.037Z,70.15
2022-08-29T18:20:38.371Z,71.05
2022-08-29T18:23:16.647Z,70.96
2022-08-29T18:25:45.860Z,71.40
2022-08-29T18:28:12.967Z,70.72
2022-08-29T18:30:41.197Z,70.90
2022-08-29T18:33:10.795Z,71.73
2022-08-29T18:35:39.164Z,71.85
2022-08-29T18:38:08.151Z,72.14
2022-08-29T18:40:39.575Z,72.66
2022-08-29T18:43:11.325Z,73.35
2022-08-29T18:45:44.978Z,73.49
2022-08-29T18:48:12.932Z,73.93
2022-08-29T18:50:43.746Z,74.48
2022-08-29T18:53:14.729Z,75.01
2022-08-29T18:55:52.182Z,74.67
2022-08-29T18:58:30.036Z,75.23
2022-08-29T19:00:59.931Z,74.73
2022-08-29T19:03:37.156Z,74.82
2022-08-29T19:06:07.766Z,75.08
2022-08-29T19:08:36.568Z,75.56
2022-08-29T19:11:09.289Z,75.08
2022-08-29T19:13:42.353Z,76.66
2022-08-29T19:16:14.704Z,76.94
2022-08-29T19:19:04.339Z,77.45
2022-08-29T19:21:37.109Z,78.63
2022-08-29T19:24:05.422Z,78.99
2022-08-29T19:27:01.963Z,79.64
2022-08-29T19:29:33.376Z,79.31
2022-08-29T19:32:34.188Z,79.33
2022-08-29T19:35:02.533Z,79.32
2022-08-29T19:37:45.303Z,79.61
2022-08-29T19:40:17.478Z,79.00
2022-08-29T19:42:46.452Z,78.73
2022-08-29T19:45:19.829Z,77.90
2022-08-29T19:48:03.697Z,77.13
2022-08-29T19:50:49.051Z,78.34
2022-08-29T19:53:26.821Z,77.58
2022-08-29T19:56:02.079Z,79.09
2022-08-29T19:59:23.128Z,80.30
2022-08-29T20:01:57.196Z,81.41
2022-08-29T20:04:28.206Z,84.64
2022-08-29T20:07:00.174Z,86.09
2022-08-29T20:09:27.529Z,85.37
2022-08-29T20:12:05.403Z,84.58
2022-08-29T20:14:34.931Z,85.46
2022-08-29T20:17:09.473Z,85.35
2022-08-29T20:19:40.164Z,83.85
2022-08-29T20:22:08.307Z,84.08
2022-08-29T20:24:40.533Z,84.29
2022-08-29T20:27:08.855Z,84.05
2022-08-29T20:32:09.242Z,87.35
2022-08-29T20:34:37.347Z,88.48
2022-08-29T20:37:09.006Z,90.21
2022-08-29T20:39:47.918Z,89.08
2022-08-29T20:42:30.691Z,88.45
2022-08-29T20:45:00.176Z,88.87
2022-08-29T20:47:51.582Z,88.65
2022-08-29T20:50:18.930Z,87.92
2022-08-29T20:53:05.668Z,88.48
2022-08-29T20:55:32.769Z,88.99
2022-08-29T20:58:01.545Z,89.62
2022-08-29T21:00:36.016Z,88.70
2022-08-29T21:03:23.637Z,88.78
2022-08-29T21:05:52.795Z,88.79
2022-08-29T21:08:23.683Z,89.18
2022-08-29T21:10:57.064Z,90.16
2022-08-29T21:13:29.308Z,90.29
2022-08-29T21:15:58.929Z,90.89
2022-08-29T21:18:35.090Z,89.72
2022-08-29T21:21:06.495Z,90.47
2022-08-29T21:23:34.563Z,90.39
2022-08-29T21:26:05.359Z,91.51
2022-08-29T21:28:35.204Z,92.06
2022-08-29T21:31:10.701Z,91.08
2022-08-29T21:33:45.736Z,91.06
2022-08-29T21:36:25.998Z,91.87
2022-08-29T21:39:08.236Z,92.47
2022-08-29T21:41:41.972Z,92.99
2022-08-29T21:44:11.928Z,93.45
2022-08-29T21:46:43.583Z,93.82
2022-08-29T21:49:17.289Z,94.25
2022-08-29T21:51:56.565Z,93.72
2022-08-29T21:54:23.605Z,93.57
2022-08-29T21:56:53.749Z,92.89
2022-08-29T21:59:23.305Z,92.50
2022-08-29T22:02:15.316Z,92.76
2022-08-29T22:04:42.513Z,93.56
2022-08-29T22:07:09.648Z,94.15
2022-08-29T22:09:50.983Z,94.53
2022-08-29T22:12:18.165Z,93.71
2022-08-29T22:15:05.670Z,93.73
2022-08-29T22:17:33.781Z,93.75
2022-08-29T22:20:04.418Z,94.05
2022-08-29T22:22:33.492Z,94.78
2022-08-29T22:25:06.989Z,94.63
2022-08-29T22:27:34.581Z,94.28
2022-08-29T22:30:02.686Z,93.40
2022-08-29T22:32:32.307Z,93.67
2022-08-29T22:35:06.882Z,94.18
2022-08-29T22:37:37.811Z,94.51
2022-08-29T22:40:16.861Z,94.90
2022-08-29T22:42:47.392Z,94.93
2022-08-29T22:45:16.344Z,95.01
2022-08-29T22:47:46.042Z,94.89
2022-08-29T22:50:20.059Z,95.28
2022-08-29T22:52:50.167Z,95.27
2022-08-29T22:58:13.800Z,96.57
2022-08-29T23:00:41.875Z,97.30
2022-08-29T23:03:10.079Z,97.19
2022-08-29T23:05:46.638Z,97.61
2022-08-29T23:08:17.529Z,97.24
2022-08-29T23:10:45.517Z,96.64
2022-08-29T23:13:16.790Z,96.41
2022-08-29T23:15:44.160Z,95.95
2022-08-29T23:18:11.375Z,96.58
2022-08-29T23:20:38.589Z,96.45
2022-08-29T23:23:08.614Z,96.49
2022-08-29T23:25:35.935Z,96.52
2022-08-29T23:28:03.125Z,96.49
2022-08-29T23:30:30.205Z,96.94
2022-08-29T23:33:18.166Z,96.77
2022-08-29T23:35:54.867Z,97.21
2022-08-29T23:38:24.198Z,97.79
2022-08-29T23:40:53.497Z,97.59
2022-08-29T23:43:46.611Z,97.79
2022-08-29T23:46:19.610Z,97.47
2022-08-29T23:48:48.730Z,96.87
2022-08-29T23:51:17.589Z,96.58
2022-08-29T23:53:51.114Z,96.38
2022-08-29T23:56:22.480Z,96.58
2022-08-29T23:58:51.942Z,96.85
